createdAt,value
2018-12-07T00:00:46.330Z,99914.91
2018-12-07T00:03:15.470Z,99906.73
2018-12-07T00:05:44.626Z,99909.17
2018-12-07T00:08:13.778Z,99912.84
2018-12-07T00:10:43.612Z,99911.92
2018-12-07T00:13:12.768Z,99910.50
2018-12-07T00:15:41.943Z,99910.14
2018-12-07T00:18:11.170Z,99911.03
2018-12-07T00:20:40.517Z,99911.64
2018-12-07T00:23:09.815Z,99911.95
2018-12-07T00:25:39.056Z,99914.56
2018-12-07T00:28:08.338Z,99910.50
2018-12-07T00:30:37.465Z,99910.71
2018-12-07T00:33:06.645Z,99906.53
2018-12-07T00:35:35.938Z,99905.93
2018-12-07T00:38:05.175Z,99908.34
2018-12-07T00:40:34.474Z,99913.81
2018-12-07T00:43:03.798Z,99910.95
2018-12-07T00:45:33.298Z,99910.63
2018-12-07T00:48:02.601Z,99911.17
2018-12-07T00:50:31.734Z,99900.39
2018-12-07T00:53:01.282Z,99892.45
2018-12-07T00:55:39.947Z,99896.75
2018-12-07T00:58:09.241Z,99901.45
2018-12-07T01:03:19.524Z,99895.31
2018-12-07T01:05:48.871Z,99891.88
2018-12-07T01:08:17.983Z,99885.80
2018-12-07T01:10:47.190Z,99887.69
2018-12-07T01:13:16.542Z,99889.83
2018-12-07T01:15:45.764Z,99887.57
2018-12-07T01:18:15.116Z,99885.67
2018-12-07T01:20:44.318Z,99886.43
2018-12-07T01:23:13.579Z,99874.36
2018-12-07T01:25:43.157Z,99878.48
2018-12-07T01:28:12.383Z,99877.01
2018-12-07T01:30:41.511Z,99876.98
2018-12-07T01:33:10.959Z,99885.73
2018-12-07T01:35:40.110Z,99880.56
2018-12-07T01:38:09.260Z,99876.17
2018-12-07T01:40:38.883Z,99875.81
2018-12-07T01:43:08.288Z,99865.09
2018-12-07T01:45:37.536Z,99877.09
2018-12-07T01:48:06.901Z,99869.91
2018-12-07T01:50:36.066Z,99868.37
2018-12-07T01:53:05.308Z,99866.27
2018-12-07T01:55:34.707Z,99856.79
2018-12-07T01:58:04.185Z,99851.74
2018-12-07T02:00:33.503Z,99848.91
2018-12-07T02:03:02.885Z,99857.34
2018-12-07T02:05:32.296Z,99852.61
2018-12-07T02:08:01.433Z,99844.91
2018-12-07T02:10:30.862Z,99849.90
2018-12-07T02:13:00.044Z,99848.66
2018-12-07T02:15:29.296Z,99852.52
2018-12-07T02:17:58.611Z,99850.44
2018-12-07T02:20:27.725Z,99852.20
2018-12-07T02:22:56.800Z,99848.00
2018-12-07T02:25:26.080Z,99848.36
2018-12-07T02:27:59.731Z,99856.75
2018-12-07T02:30:28.961Z,99852.74
2018-12-07T02:32:58.211Z,99845.59
2018-12-07T02:35:29.366Z,99840.50
2018-12-07T02:37:58.647Z,99832.91
2018-12-07T02:43:20.955Z,99840.06
2018-12-07T02:45:50.194Z,99827.35
2018-12-07T02:48:19.548Z,99822.28
2018-12-07T02:50:48.950Z,99828.19
2018-12-07T02:53:18.169Z,99826.13
2018-12-07T02:55:47.441Z,99820.47
2018-12-07T02:58:16.795Z,99824.80
2018-12-07T03:00:46.051Z,99825.45
2018-12-07T03:03:15.267Z,99828.58
2018-12-07T03:05:44.663Z,99829.92
2018-12-07T03:08:13.928Z,99838.23
2018-12-07T03:10:43.004Z,99835.38
2018-12-07T03:13:12.333Z,99841.64
2018-12-07T03:15:41.419Z,99851.20
2018-12-07T03:18:20.267Z,99844.05
2018-12-07T03:20:49.542Z,99841.05
2018-12-07T03:23:18.571Z,99850.20
2018-12-07T03:25:47.662Z,99852.86
2018-12-07T03:28:16.972Z,99851.16
2018-12-07T03:30:46.301Z,99849.85
2018-12-07T03:33:15.546Z,99847.48
2018-12-07T03:35:44.777Z,99848.52
2018-12-07T03:38:14.116Z,99851.45
2018-12-07T03:40:43.799Z,99845.61
2018-12-07T03:43:12.911Z,99852.88
2018-12-07T03:45:42.117Z,99855.23
2018-12-07T03:48:11.364Z,99856.71
2018-12-07T03:50:40.472Z,99864.29
2018-12-07T03:53:10.190Z,99872.23
2018-12-07T03:55:39.912Z,99870.44
2018-12-07T03:58:09.075Z,99874.11
2018-12-07T04:00:38.404Z,99872.63
2018-12-07T04:03:07.622Z,99876.31
2018-12-07T04:05:36.727Z,99871.76
2018-12-07T04:08:06.110Z,99874.41
2018-12-07T04:10:35.334Z,99880.92
2018-12-07T04:13:04.520Z,99878.76
2018-12-07T04:15:33.752Z,99880.53
2018-12-07T04:18:03.200Z,99877.80
2018-12-07T04:20:32.431Z,99881.20
2018-12-07T04:23:01.668Z,99882.64
2018-12-07T04:25:31.211Z,99879.80
2018-12-07T04:28:00.319Z,99873.55
2018-12-07T04:30:29.747Z,99866.95
2018-12-07T04:32:58.955Z,99866.39
2018-12-07T04:35:27.971Z,99871.00
2018-12-07T04:37:57.049Z,99868.19
2018-12-07T04:40:26.222Z,99869.88
2018-12-07T04:42:55.336Z,99870.36
2018-12-07T04:45:24.478Z,99879.60
2018-12-07T04:47:53.773Z,99871.28
2018-12-07T04:50:22.888Z,99872.04
2018-12-07T04:52:51.963Z,99874.88
2018-12-07T04:55:21.580Z,99877.72
2018-12-07T04:57:50.768Z,99876.67
2018-12-07T05:00:34.159Z,99874.95
2018-12-07T05:03:03.354Z,99875.84
2018-12-07T05:05:39.066Z,99881.41
2018-12-07T05:08:08.176Z,99883.00
2018-12-07T05:10:37.394Z,99872.03
2018-12-07T05:13:06.696Z,99870.63
2018-12-07T05:15:35.827Z,99870.73
2018-12-07T05:18:05.024Z,99876.00
2018-12-07T05:23:27.375Z,99875.62
2018-12-07T05:25:56.446Z,99878.18
2018-12-07T05:28:25.876Z,99887.95
2018-12-07T05:30:55.073Z,99895.84
2018-12-07T05:33:24.116Z,99896.70
2018-12-07T05:35:53.532Z,99903.40
2018-12-07T05:38:22.678Z,99892.16
2018-12-07T05:40:51.899Z,99906.50
2018-12-07T05:43:21.062Z,99904.33
2018-12-07T05:45:50.264Z,99909.73
2018-12-07T05:48:23.576Z,99909.92
2018-12-07T05:50:48.910Z,99910.19
2018-12-07T05:53:17.915Z,99910.67
2018-12-07T05:55:46.929Z,99909.25
2018-12-07T05:58:16.087Z,99913.61
2018-12-07T06:00:45.314Z,99906.41
2018-12-07T06:03:14.546Z,99903.68
2018-12-07T06:05:44.046Z,99909.52
2018-12-07T06:08:13.192Z,99901.28
2018-12-07T06:10:42.240Z,99908.13
2018-12-07T06:13:11.571Z,99904.31
2018-12-07T06:15:40.631Z,99898.85
2018-12-07T06:18:09.812Z,99903.19
2018-12-07T06:20:39.147Z,99904.44
2018-12-07T06:23:08.265Z,99908.69
2018-12-07T06:25:37.550Z,99903.86
2018-12-07T06:28:06.843Z,99905.27
2018-12-07T06:30:36.009Z,99907.16
2018-12-07T06:33:05.221Z,99918.96
2018-12-07T06:35:34.632Z,99913.77
2018-12-07T06:38:03.719Z,99912.36
2018-12-07T06:40:32.924Z,99908.41
2018-12-07T06:43:02.251Z,99915.30
2018-12-07T06:45:31.400Z,99920.50
2018-12-07T06:48:00.655Z,99916.55
2018-12-07T06:50:30.037Z,99925.41
2018-12-07T06:52:59.220Z,99936.12
2018-12-07T06:55:51.876Z,99932.06
2018-12-07T06:58:20.960Z,99926.84
2018-12-07T07:00:50.231Z,99927.55
2018-12-07T07:03:19.538Z,99933.33
2018-12-07T07:05:48.775Z,99920.80
2018-12-07T07:08:18.028Z,99925.21
2018-12-07T07:10:47.161Z,99918.41
2018-12-07T07:13:16.350Z,99913.20
2018-12-07T07:15:45.410Z,99921.55
2018-12-07T07:18:14.817Z,99911.31
2018-12-07T07:20:58.782Z,99907.90
2018-12-07T07:23:27.972Z,99907.77
2018-12-07T07:25:57.194Z,99904.53
2018-12-07T07:28:26.190Z,99896.55
2018-12-07T07:31:01.895Z,99902.02
2018-12-07T07:33:31.098Z,99896.06
2018-12-07T07:36:00.083Z,99901.37
2018-12-07T07:38:29.440Z,99899.95
2018-12-07T07:40:58.632Z,99897.54
2018-12-07T07:43:27.859Z,99894.70
2018-12-07T07:45:57.213Z,99884.94
2018-12-07T07:48:26.358Z,99891.41
2018-12-07T07:50:55.326Z,99892.02
2018-12-07T07:53:24.800Z,99880.78
2018-12-07T07:55:54.019Z,99868.25
2018-12-07T07:58:23.216Z,99868.61
2018-12-07T08:00:52.308Z,99867.30
2018-12-07T08:03:21.367Z,99878.28
2018-12-07T08:05:50.407Z,99883.05
2018-12-07T08:08:19.679Z,99886.41
2018-12-07T08:10:48.870Z,99890.25
2018-12-07T08:13:18.103Z,99891.48
2018-12-07T08:15:47.237Z,99880.70
2018-12-07T08:18:16.536Z,99871.16
2018-12-07T08:20:45.927Z,99862.71
2018-12-07T08:23:15.138Z,99868.35
2018-12-07T08:25:44.227Z,99867.61
2018-12-07T08:28:13.342Z,99857.37
2018-12-07T08:30:42.940Z,99858.08
2018-12-07T08:33:12.113Z,99859.44
2018-12-07T08:35:41.319Z,99848.54
2018-12-07T08:38:10.524Z,99830.52
2018-12-07T08:40:41.814Z,99817.66
2018-12-07T08:43:13.550Z,99810.91
2018-12-07T08:45:42.919Z,99802.58
2018-12-07T08:48:12.071Z,99796.42
2018-12-07T08:50:41.271Z,99783.53
2018-12-07T08:53:10.367Z,99773.35
2018-12-07T08:55:39.381Z,99764.94
2018-12-07T08:58:09.341Z,99765.04
2018-12-07T09:00:38.491Z,99763.32
2018-12-07T09:03:07.721Z,99758.38
2018-12-07T09:05:37.015Z,99764.55
2018-12-07T09:08:06.204Z,99763.61
2018-12-07T09:10:35.338Z,99762.55
2018-12-07T09:13:04.545Z,99754.53
2018-12-07T09:15:33.863Z,99749.73
2018-12-07T09:18:03.384Z,99752.13
2018-12-07T09:20:32.869Z,99751.39
2018-12-07T09:23:02.283Z,99744.99
2018-12-07T09:25:31.413Z,99743.45
2018-12-07T09:28:00.555Z,99736.30
2018-12-07T09:30:29.587Z,99737.11
2018-12-07T09:32:58.570Z,99734.16
2018-12-07T09:35:27.725Z,99730.40
2018-12-07T09:37:56.761Z,99733.20
2018-12-07T09:40:36.795Z,99729.66
2018-12-07T09:43:05.811Z,99722.91
2018-12-07T09:45:34.938Z,99714.45
2018-12-07T09:48:04.041Z,99712.61
2018-12-07T09:50:33.012Z,99707.34
2018-12-07T09:55:47.590Z,99695.56
2018-12-07T09:58:16.667Z,99694.42
2018-12-07T10:00:45.884Z,99698.88
2018-12-07T10:03:14.888Z,99685.87
2018-12-07T10:05:44.261Z,99689.58
2018-12-07T10:08:13.346Z,99686.06
2018-12-07T10:10:45.324Z,99684.70
2018-12-07T10:13:14.349Z,99674.76
2018-12-07T10:15:43.444Z,99682.92
2018-12-07T10:18:12.556Z,99679.77
2018-12-07T10:20:41.585Z,99678.75
2018-12-07T10:23:10.728Z,99683.23
2018-12-07T10:25:40.104Z,99680.23
2018-12-07T10:28:09.329Z,99663.70
2018-12-07T10:30:38.417Z,99659.48
2018-12-07T10:33:07.470Z,99653.06
2018-12-07T10:35:36.447Z,99656.08
2018-12-07T10:38:05.593Z,99640.92
2018-12-07T10:40:34.755Z,99639.23
2018-12-07T10:43:03.786Z,99646.64
2018-12-07T10:45:32.807Z,99645.64
2018-12-07T10:48:01.853Z,99634.83
2018-12-07T10:50:35.295Z,99623.42
2018-12-07T10:53:04.377Z,99609.94
2018-12-07T10:55:33.355Z,99608.38
2018-12-07T10:58:02.405Z,99597.50
2018-12-07T11:00:36.460Z,99601.90
2018-12-07T11:04:11.848Z,99595.55
2018-12-07T11:06:45.809Z,99591.84
2018-12-07T11:09:19.852Z,99582.28
2018-12-07T11:12:52.688Z,99584.39
2018-12-07T11:15:26.733Z,99572.30
2018-12-07T11:18:00.817Z,99569.91
2018-12-07T11:20:35.796Z,99578.75
2018-12-07T11:23:09.954Z,99579.66
2018-12-07T11:25:43.983Z,99577.80
2018-12-07T11:28:18.721Z,99575.17
2018-12-07T11:30:52.643Z,99565.56
2018-12-07T11:33:28.915Z,99568.59
2018-12-07T11:35:57.892Z,99561.30
2018-12-07T11:38:26.848Z,99556.19
2018-12-07T11:40:55.880Z,99555.34
2018-12-07T11:43:24.913Z,99562.09
2018-12-07T11:46:16.870Z,99559.52
2018-12-07T11:48:45.843Z,99550.70
2018-12-07T11:51:14.913Z,99550.94
2018-12-07T11:53:43.927Z,99551.53
2018-12-07T11:56:13.171Z,99545.05
2018-12-07T11:58:42.187Z,99554.47
2018-12-07T12:01:11.765Z,99550.25
2018-12-07T12:03:40.712Z,99555.57
2018-12-07T12:06:09.704Z,99553.67
2018-12-07T12:08:38.764Z,99560.31
2018-12-07T12:11:07.800Z,99558.45
2018-12-07T12:13:36.834Z,99557.44
2018-12-07T12:16:28.147Z,99557.15
2018-12-07T12:18:57.268Z,99552.40
2018-12-07T12:21:38.873Z,99551.30
2018-12-07T12:24:07.937Z,99546.37
2018-12-07T12:26:36.971Z,99541.75
2018-12-07T12:29:06.075Z,99546.17
2018-12-07T12:34:33.193Z,99541.09
2018-12-07T12:37:02.236Z,99540.48
2018-12-07T12:39:31.252Z,99543.09
2018-12-07T12:42:00.346Z,99547.16
2018-12-07T12:44:29.326Z,99552.02
2018-12-07T12:46:58.405Z,99545.39
2018-12-07T12:49:27.621Z,99550.75
2018-12-07T12:51:57.144Z,99552.44
2018-12-07T12:54:26.261Z,99544.68
2018-12-07T12:56:55.310Z,99536.92
2018-12-07T12:59:24.297Z,99539.44
2018-12-07T13:01:53.295Z,99545.85
2018-12-07T13:04:26.150Z,99544.95
2018-12-07T13:06:55.356Z,99554.27
2018-12-07T13:09:24.464Z,99546.00
2018-12-07T13:11:54.276Z,99548.91
2018-12-07T13:14:22.693Z,99545.72
2018-12-07T13:16:51.745Z,99545.08
2018-12-07T13:19:20.875Z,99541.02
2018-12-07T13:21:50.748Z,99538.20
2018-12-07T13:24:19.908Z,99536.95
2018-12-07T13:26:49.571Z,99537.08
2018-12-07T13:29:18.628Z,99540.31
2018-12-07T13:31:47.696Z,99536.61
2018-12-07T13:34:16.760Z,99530.43
2018-12-07T13:36:46.132Z,99524.52
2018-12-07T13:39:15.195Z,99527.90
2018-12-07T13:41:50.365Z,99535.61
2018-12-07T13:44:14.554Z,99530.94
2018-12-07T13:46:46.184Z,99533.66
2018-12-07T13:49:15.592Z,99532.79
2018-12-07T13:51:46.034Z,99529.00
2018-12-07T13:54:15.312Z,99532.88
2018-12-07T13:56:44.381Z,99533.44
2018-12-07T13:59:13.574Z,99535.92
2018-12-07T14:01:43.133Z,99541.10
2018-12-07T14:04:12.383Z,99539.34
2018-12-07T14:06:41.265Z,99544.05
2018-12-07T14:09:10.456Z,99543.09
2018-12-07T14:11:39.377Z,99539.59
2018-12-07T14:14:08.621Z,99543.05
2018-12-07T14:16:37.798Z,99546.05
2018-12-07T14:19:06.905Z,99529.20
2018-12-07T14:21:35.876Z,99538.84
2018-12-07T14:24:05.290Z,99530.97
2018-12-07T14:26:34.340Z,99527.83
2018-12-07T14:29:03.409Z,99530.63
2018-12-07T14:31:32.439Z,99522.82
2018-12-07T14:34:01.482Z,99515.70
2018-12-07T14:36:30.500Z,99508.77
2018-12-07T14:38:59.726Z,99494.12
2018-12-07T14:44:33.407Z,99500.73
2018-12-07T14:47:02.382Z,99505.00
2018-12-07T14:49:31.445Z,99508.02
2018-12-07T14:52:00.533Z,99512.98
2018-12-07T14:54:29.571Z,99510.48
2018-12-07T14:56:58.615Z,99516.45
2018-12-07T14:59:27.704Z,99517.88
2018-12-07T15:01:56.946Z,99515.30
2018-12-07T15:04:25.866Z,99499.86
2018-12-07T15:06:55.026Z,99505.40
2018-12-07T15:09:24.159Z,99491.31
2018-12-07T15:11:53.002Z,99491.89
2018-12-07T15:14:22.061Z,99479.57
2018-12-07T15:16:51.070Z,99485.54
2018-12-07T15:19:20.087Z,99476.91
2018-12-07T15:21:49.147Z,99482.03
2018-12-07T15:24:18.213Z,99483.06
2018-12-07T15:26:47.281Z,99492.77
2018-12-07T15:29:16.224Z,99503.44
2018-12-07T15:31:45.441Z,99507.44
2018-12-07T15:34:14.261Z,99515.56
2018-12-07T15:36:43.426Z,99520.88
2018-12-07T15:39:12.362Z,99530.05
2018-12-07T15:41:41.491Z,99527.55
2018-12-07T15:44:10.497Z,99525.31
2018-12-07T15:46:39.482Z,99527.13
2018-12-07T15:49:08.424Z,99528.84
2018-12-07T15:51:37.510Z,99537.59
2018-12-07T15:54:06.649Z,99527.01
2018-12-07T15:56:35.716Z,99518.73
2018-12-07T15:59:04.707Z,99520.50
2018-12-07T16:01:33.782Z,99525.29
2018-12-07T16:04:02.784Z,99533.20
2018-12-07T16:06:32.114Z,99532.48
2018-12-07T16:09:00.883Z,99526.25
2018-12-07T16:11:29.911Z,99524.72
2018-12-07T16:13:59.049Z,99523.83
2018-12-07T16:16:27.974Z,99520.11
2018-12-07T16:18:56.942Z,99518.85
2018-12-07T16:21:26.051Z,99523.13
2018-12-07T16:23:55.076Z,99513.59
2018-12-07T16:26:24.116Z,99522.13
2018-12-07T16:28:53.106Z,99518.89
2018-12-07T16:31:22.196Z,99527.14
2018-12-07T16:33:51.365Z,99522.36
2018-12-07T16:36:20.351Z,99521.55
2018-12-07T16:38:49.489Z,99526.73
2018-12-07T16:41:18.603Z,99533.91
2018-12-07T16:43:47.813Z,99523.84
2018-12-07T16:46:16.950Z,99513.81
2018-12-07T16:48:46.091Z,99508.80
2018-12-07T16:51:15.094Z,99512.31
2018-12-07T16:53:44.139Z,99506.93
2018-12-07T16:56:13.146Z,99504.81
2018-12-07T16:58:42.293Z,99495.73
2018-12-07T17:01:11.332Z,99486.58
2018-12-07T17:03:40.769Z,99488.36
2018-12-07T17:06:09.992Z,99482.50
2018-12-07T17:08:38.888Z,99474.75
2018-12-07T17:11:08.087Z,99472.09
2018-12-07T17:13:37.130Z,99475.73
2018-12-07T17:16:06.253Z,99477.25
2018-12-07T17:18:35.606Z,99483.14
2018-12-07T17:21:04.645Z,99486.98
2018-12-07T17:23:33.609Z,99484.86
2018-12-07T17:26:02.742Z,99488.78
2018-12-07T17:28:31.999Z,99486.98
2018-12-07T17:31:00.981Z,99487.18
2018-12-07T17:33:30.117Z,99489.19
2018-12-07T17:35:59.339Z,99491.50
2018-12-07T17:38:28.170Z,99493.47
2018-12-07T17:40:57.220Z,99494.23
2018-12-07T17:43:26.314Z,99490.78
2018-12-07T17:45:55.426Z,99487.83
2018-12-07T17:48:24.677Z,99478.86
2018-12-07T17:50:53.639Z,99474.64
2018-12-07T17:53:22.749Z,99480.56
2018-12-07T17:55:51.825Z,99479.74
2018-12-07T17:58:20.918Z,99484.52
2018-12-07T18:00:50.176Z,99476.05
2018-12-07T18:03:19.131Z,99469.61
2018-12-07T18:05:48.286Z,99464.66
2018-12-07T18:08:17.408Z,99458.00
2018-12-07T18:10:46.335Z,99457.12
2018-12-07T18:13:15.576Z,99451.28
2018-12-07T18:15:44.829Z,99454.17
2018-12-07T18:18:13.868Z,99444.61
2018-12-07T18:20:43.157Z,99443.39
2018-12-07T18:23:12.163Z,99442.25
2018-12-07T18:25:41.015Z,99436.22
2018-12-07T18:28:10.410Z,99448.12
2018-12-07T18:30:39.412Z,99444.80
2018-12-07T18:33:08.600Z,99462.15
2018-12-07T18:35:38.361Z,99462.09
2018-12-07T18:38:07.621Z,99462.00
2018-12-07T18:40:36.667Z,99459.20
2018-12-07T18:43:05.650Z,99460.68
2018-12-07T18:45:34.995Z,99460.16
2018-12-07T18:48:03.810Z,99454.54
2018-12-07T18:50:32.992Z,99448.12
2018-12-07T18:53:01.867Z,99457.27
2018-12-07T18:55:31.092Z,99456.83
2018-12-07T18:58:00.425Z,99450.27
2018-12-07T19:00:29.321Z,99446.92
2018-12-07T19:02:58.377Z,99446.16
2018-12-07T19:05:27.421Z,99443.46
2018-12-07T19:07:56.602Z,99437.56
2018-12-07T19:10:25.717Z,99437.55
2018-12-07T19:12:54.571Z,99436.58
2018-12-07T19:15:23.912Z,99432.47
2018-12-07T19:17:52.816Z,99428.97
2018-12-07T19:20:22.259Z,99429.58
2018-12-07T19:22:51.357Z,99428.25
2018-12-07T19:25:20.431Z,99428.50
2018-12-07T19:27:49.476Z,99427.55
2018-12-07T19:30:18.776Z,99436.48
2018-12-07T19:32:47.597Z,99435.16
2018-12-07T19:35:16.803Z,99433.22
2018-12-07T19:37:45.812Z,99435.78
2018-12-07T19:40:15.048Z,99435.91
2018-12-07T19:42:44.190Z,99434.93
2018-12-07T19:45:13.235Z,99438.18
2018-12-07T19:47:42.395Z,99428.05
2018-12-07T19:50:11.608Z,99397.98
2018-12-07T19:52:40.817Z,99390.30
2018-12-07T19:55:10.838Z,99412.25
2018-12-07T19:57:39.375Z,99402.35
2018-12-07T20:00:10.117Z,99403.19
2018-12-07T20:02:38.917Z,99403.53
2018-12-07T20:05:08.578Z,99394.14
2018-12-07T20:07:37.732Z,99388.49
2018-12-07T20:10:07.404Z,99389.57
2018-12-07T20:12:36.562Z,99383.15
2018-12-07T20:15:05.630Z,99374.33
2018-12-07T20:17:34.956Z,99374.41
2018-12-07T20:20:04.153Z,99374.89
2018-12-07T20:22:33.006Z,99368.41
2018-12-07T20:25:02.171Z,99365.56
2018-12-07T20:27:31.360Z,99374.72
2018-12-07T20:30:00.187Z,99371.96
2018-12-07T20:32:29.444Z,99371.13
2018-12-07T20:34:58.274Z,99359.44
2018-12-07T20:37:27.456Z,99353.64
2018-12-07T20:39:56.293Z,99360.52
2018-12-07T20:42:25.606Z,99364.96
2018-12-07T20:44:54.519Z,99357.12
2018-12-07T20:47:25.001Z,99364.74
2018-12-07T20:49:52.871Z,99363.41
2018-12-07T20:52:21.693Z,99358.59
2018-12-07T20:54:50.895Z,99366.06
2018-12-07T20:57:19.849Z,99361.47
2018-12-07T20:59:48.923Z,99355.80
2018-12-07T21:02:18.277Z,99347.14
2018-12-07T21:04:47.594Z,99345.04
2018-12-07T21:09:43.131Z,99338.77
2018-12-07T21:12:25.708Z,99327.11
2018-12-07T21:14:56.606Z,99341.39
2018-12-07T21:17:31.680Z,99333.20
2018-12-07T21:20:17.231Z,99323.84
2018-12-07T21:22:46.282Z,99331.80
2018-12-07T21:25:15.418Z,99328.28
2018-12-07T21:27:44.622Z,99339.36
2018-12-07T21:30:52.766Z,99323.11
2018-12-07T21:33:27.360Z,99314.78
2018-12-07T21:37:02.627Z,99319.73
2018-12-07T21:39:38.935Z,99326.47
2018-12-07T21:42:08.126Z,99316.36
2018-12-07T21:44:37.030Z,99330.36
2018-12-07T21:47:06.004Z,99330.03
2018-12-07T21:49:48.642Z,99330.01
2018-12-07T21:52:24.100Z,99326.48
2018-12-07T21:54:53.040Z,99327.09
2018-12-07T21:57:22.449Z,99325.95
2018-12-07T21:59:51.204Z,99312.76
2018-12-07T22:02:20.703Z,99306.84
2018-12-07T22:04:49.698Z,99301.30
2018-12-07T22:07:18.964Z,99293.70
2018-12-07T22:09:48.429Z,99293.70
2018-12-07T22:12:17.227Z,99290.81
2018-12-07T22:14:46.499Z,99296.47
2018-12-07T22:17:15.396Z,99286.74
2018-12-07T22:19:44.374Z,99276.00
2018-12-07T22:22:13.526Z,99272.13
2018-12-07T22:24:42.619Z,99269.72
2018-12-07T22:27:11.829Z,99259.94
2018-12-07T22:29:40.683Z,99263.56
2018-12-07T22:32:09.949Z,99263.19
2018-12-07T22:34:38.746Z,99264.23
2018-12-07T22:37:07.891Z,99259.28
2018-12-07T22:39:36.959Z,99258.84
2018-12-07T22:42:05.910Z,99261.49
2018-12-07T22:44:34.964Z,99262.13
2018-12-07T22:47:04.273Z,99261.14
2018-12-07T22:49:33.302Z,99248.23
2018-12-07T22:52:02.244Z,99240.67
2018-12-07T22:54:31.290Z,99237.13
2018-12-07T22:57:00.306Z,99233.84
2018-12-07T22:59:29.267Z,99235.29
2018-12-07T23:01:58.339Z,99235.67
2018-12-07T23:04:27.368Z,99234.86
2018-12-07T23:06:56.319Z,99234.33
2018-12-07T23:09:25.359Z,99239.34
2018-12-07T23:11:54.339Z,99231.97
2018-12-07T23:14:23.342Z,99230.15
2018-12-07T23:16:52.332Z,99221.28
2018-12-07T23:19:21.336Z,99218.44
2018-12-07T23:21:50.285Z,99216.04
2018-12-07T23:24:19.365Z,99225.40
2018-12-07T23:26:48.301Z,99223.78
2018-12-07T23:29:23.808Z,99220.75
2018-12-07T23:31:52.805Z,99225.36
2018-12-07T23:34:21.756Z,99226.50
2018-12-07T23:36:50.814Z,99218.31
2018-12-07T23:39:19.775Z,99216.74
2018-12-07T23:41:48.803Z,99211.77
2018-12-07T23:44:17.860Z,99218.56
2018-12-07T23:46:46.895Z,99216.27
2018-12-07T23:49:15.861Z,99212.19
2018-12-07T23:51:45.210Z,99203.44
2018-12-07T23:54:14.271Z,99220.12
2018-12-07T23:56:43.213Z,99209.84
2018-12-07T23:59:12.296Z,99209.02
